Time;durP1;ratioP1;P1;durP2;ratioP2;P2;SDS_P1;SDS_P2;PMS_P1;PMS_P2;Temp;Humidity;BMP_temperature;BMP_pressure;BME280_temperature;BME280_humidity;BME280_pressure;Samples;Min_cycle;Max_cycle;Signal;HPM_P1;HPM_P2
2022/03/19 00:04:06;;;;;;;6.00;0.65;;;5.50;74.50;;;;;;10398397;28;20041;-60
2022/03/19 00:09:09;;;;;;;3.03;0.70;;;5.50;74.40;;;;;;10405702;28;20099;-60
2022/03/19 00:14:12;;;;;;;5.03;0.63;;;5.50;74.60;;;;;;10403431;28;20084;-61
2022/03/19 00:19:13;;;;;;;3.67;1.35;;;5.60;74.20;;;;;;10404061;28;20049;-60
2022/03/19 00:24:15;;;;;;;7.70;0.75;;;5.70;74.20;;;;;;10406634;28;20045;-60
2022/03/19 00:29:16;;;;;;;3.72;0.68;;;5.70;74.20;;;;;;10402640;28;20072;-61
2022/03/19 00:34:18;;;;;;;2.08;0.70;;;5.80;73.80;;;;;;10408228;28;20111;-60
2022/03/19 00:39:20;;;;;;;3.35;0.60;;;5.80;73.60;;;;;;10399269;28;20042;-63
2022/03/19 00:44:22;;;;;;;4.72;0.60;;;5.90;74.10;;;;;;10402544;28;20088;-61
2022/03/19 00:49:23;;;;;;;3.67;1.20;;;5.90;73.70;;;;;;10402576;28;20110;-60
2022/03/19 00:54:25;;;;;;;2.35;0.50;;;5.90;74.00;;;;;;10403943;28;20053;-61
2022/03/19 00:59:27;;;;;;;2.42;0.60;;;5.90;73.70;;;;;;10398777;28;20123;-60
2022/03/19 01:04:28;;;;;;;6.18;0.70;;;6.00;73.50;;;;;;10416525;28;20114;-60
2022/03/19 01:09:30;;;;;;;3.00;0.82;;;6.00;74.30;;;;;;10409773;28;20107;-59
2022/03/19 01:14:32;;;;;;;4.68;0.55;;;6.00;73.90;;;;;;10401858;28;20494;-60
2022/03/19 01:24:54;;;;;;;2.40;0.50;;;6.00;73.50;;;;;;10410572;28;20128;-60
2022/03/19 01:29:56;;;;;;;4.85;0.85;;;6.10;73.40;;;;;;10416431;28;20068;-60
2022/03/19 01:34:57;;;;;;;2.78;0.63;;;6.00;73.40;;;;;;10413121;28;20072;-61
2022/03/19 01:39:59;;;;;;;6.15;1.23;;;6.00;73.50;;;;;;10396833;28;20075;-60
2022/03/19 01:45:03;;;;;;;2.10;0.47;;;6.00;73.50;;;;;;10407768;28;20369;-61
2022/03/19 01:50:06;;;;;;;2.00;0.40;;;6.00;73.80;;;;;;10404183;28;20052;-61
2022/03/19 01:55:10;;;;;;;1.08;0.40;;;5.90;74.30;;;;;;10398122;28;20138;-61
2022/03/19 02:00:16;;;;;;;1.27;0.30;;;5.90;74.50;;;;;;10406240;28;20154;-63
2022/03/19 02:05:23;;;;;;;2.37;0.63;;;5.90;74.50;;;;;;10406580;28;20049;-61
2022/03/19 02:10:26;;;;;;;3.80;0.60;;;5.80;74.60;;;;;;10411547;28;20134;-61
2022/03/19 02:15:28;;;;;;;4.00;0.75;;;5.80;74.70;;;;;;10404400;28;20385;-60
2022/03/19 02:20:34;;;;;;;6.55;0.70;;;5.70;75.00;;;;;;10405343;28;20128;-60
2022/03/19 02:25:36;;;;;;;2.58;0.70;;;5.70;75.20;;;;;;10411016;28;20086;-59
2022/03/19 02:30:39;;;;;;;2.03;0.60;;;5.70;75.80;;;;;;10401961;28;20156;-61
2022/03/19 02:35:40;;;;;;;1.95;0.60;;;5.70;76.00;;;;;;10408623;28;20183;-61
2022/03/19 02:40:42;;;;;;;2.08;0.82;;;5.60;76.60;;;;;;10403595;28;20583;-60
2022/03/19 02:45:47;;;;;;;5.97;2.13;;;5.70;76.70;;;;;;10401037;28;20138;-60
2022/03/19 02:50:49;;;;;;;5.55;0.70;;;5.60;77.10;;;;;;10404111;28;20030;-60
2022/03/19 02:55:51;;;;;;;2.70;0.90;;;5.60;77.90;;;;;;10402099;28;20046;-60
2022/03/19 03:00:52;;;;;;;8.73;1.02;;;5.50;78.10;;;;;;10386485;28;20832;-60
2022/03/19 03:05:54;;;;;;;7.45;0.93;;;5.50;78.50;;;;;;10408314;28;20041;-60
2022/03/19 03:10:56;;;;;;;4.43;0.90;;;5.50;78.60;;;;;;10408217;28;20103;-60
2022/03/19 03:15:58;;;;;;;4.82;0.85;;;5.40;78.80;;;;;;10403003;28;20116;-61
2022/03/19 03:21:00;;;;;;;6.43;1.38;;;5.30;79.10;;;;;;10400478;28;20052;-60
2022/03/19 03:26:01;;;;;;;5.95;0.77;;;5.20;79.40;;;;;;10404947;28;20126;-61
2022/03/19 03:31:03;;;;;;;2.78;0.88;;;5.10;79.80;;;;;;10405704;28;20076;-60
2022/03/19 03:36:05;;;;;;;4.13;0.90;;;5.10;80.40;;;;;;10397925;28;20041;-59
2022/03/19 03:41:07;;;;;;;5.25;0.68;;;5.00;81.20;;;;;;10399309;28;20462;-60
2022/03/19 03:46:09;;;;;;;3.78;0.70;;;4.90;82.10;;;;;;10406043;28;20073;-60
2022/03/19 03:51:12;;;;;;;6.78;1.33;;;4.70;82.80;;;;;;10405275;28;20044;-63
2022/03/19 03:56:14;;;;;;;3.38;0.70;;;4.60;83.90;;;;;;10395444;28;20053;-62
2022/03/19 04:01:16;;;;;;;4.50;0.70;;;4.50;85.40;;;;;;10401865;28;20163;-62
2022/03/19 04:06:18;;;;;;;1.42;0.70;;;4.40;87.00;;;;;;10404093;28;20199;-62
2022/03/19 04:11:20;;;;;;;3.97;0.70;;;4.20;89.00;;;;;;10410208;28;20072;-62
2022/03/19 04:16:21;;;;;;;6.15;0.98;;;4.10;90.10;;;;;;10407577;28;20048;-61
2022/03/19 04:21:23;;;;;;;4.22;0.88;;;4.00;90.70;;;;;;10390215;28;20053;-61
2022/03/19 04:26:25;;;;;;;2.78;0.65;;;3.90;92.10;;;;;;10383314;28;20049;-61
2022/03/19 04:31:26;;;;;;;5.68;0.63;;;3.80;93.00;;;;;;10405553;28;20126;-61
2022/03/19 04:36:32;;;;;;;4.38;0.50;;;3.70;94.20;;;;;;10395905;28;20035;-61
2022/03/19 04:41:35;;;;;;;1.42;0.60;;;3.70;94.90;;;;;;10406150;28;20072;-61
2022/03/19 04:46:37;;;;;;;1.55;0.60;;;3.60;95.10;;;;;;10392910;28;20041;-62
2022/03/19 04:51:39;;;;;;;1.17;0.65;;;3.50;95.80;;;;;;10398057;28;20136;-62
2022/03/19 04:56:40;;;;;;;5.45;0.80;;;3.50;96.40;;;;;;10398464;28;20072;-60
2022/03/19 05:01:42;;;;;;;2.92;0.70;;;3.40;97.60;;;;;;10384189;28;20077;-61
2022/03/19 05:06:44;;;;;;;5.65;1.27;;;3.40;98.60;;;;;;10400598;28;20045;-60
2022/03/19 05:11:45;;;;;;;5.03;0.70;;;3.30;99.90;;;;;;10397864;28;20123;-61
2022/03/19 05:16:47;;;;;;;3.35;0.70;;;3.30;99.90;;;;;;10396521;28;20045;-61
2022/03/19 05:21:49;;;;;;;3.85;0.63;;;3.20;99.90;;;;;;10401095;28;20134;-61
2022/03/19 05:26:50;;;;;;;3.13;0.60;;;3.30;99.90;;;;;;10404029;28;20119;-61
2022/03/19 05:31:52;;;;;;;7.25;0.60;;;3.20;99.90;;;;;;10401651;28;20111;-62
2022/03/19 05:36:53;;;;;;;4.45;0.80;;;3.20;99.90;;;;;;10401914;28;20041;-62
2022/03/19 05:41:56;;;;;;;3.00;0.70;;;3.20;99.90;;;;;;10402604;28;20118;-62
2022/03/19 05:46:58;;;;;;;2.20;0.73;;;3.30;99.90;;;;;;10404075;28;20652;-62
2022/03/19 05:52:00;;;;;;;7.20;0.80;;;3.30;99.90;;;;;;10399308;28;20499;-61
2022/03/19 05:57:01;;;;;;;6.88;0.93;;;3.30;99.90;;;;;;10406802;28;20061;-61
2022/03/19 06:02:05;;;;;;;6.13;1.00;;;3.30;99.90;;;;;;10407922;28;20065;-61
2022/03/19 06:07:07;;;;;;;3.80;1.15;;;3.30;99.90;;;;;;10408161;28;20065;-62
2022/03/19 06:12:09;;;;;;;5.30;1.20;;;3.30;99.90;;;;;;10406604;28;20542;-61
2022/03/19 06:17:11;;;;;;;5.30;0.98;;;3.30;99.90;;;;;;10408394;28;20130;-62
2022/03/19 06:22:13;;;;;;;5.78;1.05;;;3.30;99.90;;;;;;10412945;28;20111;-62
2022/03/19 06:27:15;;;;;;;3.63;1.00;;;3.50;99.90;;;;;;10399206;28;20065;-62
2022/03/19 06:32:20;;;;;;;4.82;1.23;;;3.50;99.90;;;;;;10405806;28;20076;-62
2022/03/19 06:37:23;;;;;;;6.50;1.00;;;3.70;99.90;;;;;;10411882;28;20111;-62
2022/03/19 06:42:25;;;;;;;5.30;0.95;;;3.80;99.90;;;;;;10411084;28;20053;-62
2022/03/19 06:47:26;;;;;;;5.43;1.70;;;3.90;99.90;;;;;;10399937;28;20142;-62
2022/03/19 06:52:29;;;;;;;3.17;0.85;;;4.10;99.90;;;;;;10409326;28;20063;-61
2022/03/19 06:57:31;;;;;;;7.65;1.00;;;4.30;99.90;;;;;;10390179;28;20061;-62
2022/03/19 07:02:32;;;;;;;6.47;1.20;;;4.60;99.90;;;;;;10388357;28;20439;-62
2022/03/19 07:07:34;;;;;;;6.72;1.33;;;4.80;99.90;;;;;;10401276;28;20054;-62
2022/03/19 07:12:45;;;;;;;6.10;1.02;;;5.10;99.90;;;;;;10404673;28;20049;-61
2022/03/19 07:17:50;;;;;;;7.93;1.17;;;5.40;99.90;;;;;;10416993;28;20746;-63
2022/03/19 07:22:55;;;;;;;2.45;1.20;;;5.70;99.90;;;;;;10404229;28;20187;-63
2022/03/19 07:27:59;;;;;;;5.97;1.52;;;5.90;96.30;;;;;;10400903;28;20049;-63
2022/03/19 07:33:02;;;;;;;7.13;1.27;;;6.10;93.80;;;;;;10410438;28;20045;-63
2022/03/19 07:38:05;;;;;;;10.80;3.45;;;6.40;92.70;;;;;;10400162;28;20109;-66
2022/03/19 07:43:08;;;;;;;6.30;1.80;;;6.50;91.90;;;;;;10398535;28;20407;-65
2022/03/19 07:48:11;;;;;;;6.68;2.13;;;6.80;92.70;;;;;;10400090;28;20038;-65
2022/03/19 07:53:27;;;;;;;6.40;1.70;;;7.00;91.40;;;;;;10403966;28;20079;-65
2022/03/19 07:58:28;;;;;;;8.23;1.88;;;7.30;91.10;;;;;;10406826;28;20057;-61
2022/03/19 08:03:30;;;;;;;8.18;1.92;;;7.50;86.00;;;;;;10398201;28;20103;-62
2022/03/19 08:08:34;;;;;;;9.40;2.20;;;7.60;85.60;;;;;;10402940;28;20100;-63
2022/03/19 08:13:35;;;;;;;8.32;2.75;;;7.70;84.50;;;;;;10404599;28;20471;-62
2022/03/19 08:18:37;;;;;;;6.80;1.88;;;7.70;83.20;;;;;;10402482;28;20710;-63
2022/03/19 08:23:39;;;;;;;5.72;1.77;;;7.80;84.50;;;;;;10407559;28;20107;-63
2022/03/19 08:28:40;;;;;;;6.90;2.70;;;7.80;83.30;;;;;;10407751;28;20041;-63
2022/03/19 08:33:42;;;;;;;9.75;1.80;;;7.90;81.30;;;;;;10401512;28;20460;-63
2022/03/19 08:44:05;;;;;;;5.38;1.52;;;8.20;79.50;;;;;;10398426;28;20085;-63
2022/03/19 08:49:06;;;;;;;6.40;1.90;;;8.30;79.40;;;;;;10401501;28;20052;-62
2022/03/19 08:54:17;;;;;;;4.80;1.40;;;8.40;79.80;;;;;;10398741;28;20483;-62
2022/03/19 08:59:22;;;;;;;6.20;2.08;;;8.50;77.70;;;;;;10399163;28;20068;-63
2022/03/19 09:04:24;;;;;;;7.15;2.63;;;8.60;78.70;;;;;;9983961;28;20080;-62
2022/03/19 09:09:26;;;;;;;5.68;2.50;;;8.60;77.90;;;;;;10401938;28;20050;-63
2022/03/19 09:14:28;;;;;;;7.00;3.03;;;8.80;77.70;;;;;;10403498;28;20120;-63
2022/03/19 09:19:29;;;;;;;9.05;2.67;;;8.90;77.70;;;;;;10400567;28;20076;-63
2022/03/19 09:24:31;;;;;;;5.63;1.70;;;9.00;78.20;;;;;;10403461;28;20518;-63
2022/03/19 09:29:33;;;;;;;4.93;2.08;;;9.10;76.60;;;;;;10406570;28;20491;-63
2022/03/19 09:34:35;;;;;;;5.80;1.30;;;9.20;74.70;;;;;;10402726;28;20135;-63
2022/03/19 09:39:36;;;;;;;7.32;1.65;;;9.40;74.00;;;;;;10407349;28;20143;-63
2022/03/19 09:44:45;;;;;;;6.15;1.48;;;9.90;72.20;;;;;;10402085;28;20099;-63
2022/03/19 09:49:46;;;;;;;5.60;2.38;;;10.00;68.90;;;;;;10408927;28;20071;-63
2022/03/19 09:54:48;;;;;;;6.07;1.75;;;10.10;68.10;;;;;;10407387;28;20085;-63
2022/03/19 09:59:50;;;;;;;4.82;1.33;;;10.20;65.80;;;;;;10412919;28;20045;-64
2022/03/19 10:04:52;;;;;;;6.10;1.38;;;10.60;67.50;;;;;;10414950;28;20049;-64
2022/03/19 10:09:56;;;;;;;9.82;1.50;;;10.90;65.80;;;;;;10401989;28;20087;-62
2022/03/19 10:14:59;;;;;;;4.47;1.30;;;10.90;63.10;;;;;;10405675;28;20056;-62
2022/03/19 10:20:09;;;;;;;9.48;2.20;;;11.00;61.80;;;;;;10403306;28;20056;-61
2022/03/19 10:25:13;;;;;;;4.60;1.73;;;11.40;61.10;;;;;;10408177;28;20080;-61
2022/03/19 10:30:24;;;;;;;5.85;1.95;;;12.40;58.30;;;;;;10407299;28;20130;-62
2022/03/19 10:35:35;;;;;;;5.10;1.58;;;13.40;54.80;;;;;;10408223;28;20057;-62
2022/03/19 10:40:42;;;;;;;3.53;1.15;;;14.50;50.80;;;;;;10407759;28;20053;-62
2022/03/19 10:45:48;;;;;;;;;;;14.90;47.20;;;;;;10410817;28;20049;-62
2022/03/19 10:50:51;;;;;;;2.53;0.90;;;15.60;45.20;;;;;;10400759;28;19932;-62
2022/03/19 10:55:53;;;;;;;1.70;0.63;;;15.80;43.70;;;;;;10407480;28;20095;-62
2022/03/19 11:00:59;;;;;;;1.40;0.50;;;15.90;41.40;;;;;;10407004;28;20480;-62
2022/03/19 11:06:06;;;;;;;1.55;0.63;;;16.50;41.10;;;;;;10390874;28;20099;-62
2022/03/19 11:11:14;;;;;;;3.33;0.38;;;16.80;38.60;;;;;;10396460;28;20074;-62
2022/03/19 11:16:17;;;;;;;0.88;0.38;;;17.70;36.20;;;;;;10396804;28;20077;-63
2022/03/19 11:21:20;;;;;;;1.13;0.40;;;18.10;35.30;;;;;;10410124;28;20060;-63
2022/03/19 11:26:24;;;;;;;0.55;0.32;;;18.80;33.70;;;;;;10397414;28;20105;-62
2022/03/19 11:31:30;;;;;;;0.60;0.30;;;19.40;31.50;;;;;;10407788;28;20427;-64
2022/03/19 11:37:04;;;;;;;2.15;0.20;;;19.90;31.70;;;;;;10403282;28;20072;-64
2022/03/19 11:42:08;;;;;;;1.50;0.28;;;20.00;30.00;;;;;;10405822;28;20076;-64
2022/03/19 11:47:11;;;;;;;2.15;0.30;;;19.90;30.00;;;;;;10398868;28;20099;-63
2022/03/19 11:52:26;;;;;;;1.52;0.30;;;20.60;28.40;;;;;;10403915;28;20068;-64
2022/03/19 11:57:28;;;;;;;2.15;0.30;;;21.20;29.90;;;;;;10406880;28;20331;-65
2022/03/19 12:02:32;;;;;;;1.83;0.30;;;20.80;28.90;;;;;;10404987;28;20098;-65
2022/03/19 12:07:47;;;;;;;1.25;0.20;;;21.20;28.40;;;;;;10398931;28;20484;-62
2022/03/19 12:12:48;;;;;;;0.55;0.30;;;21.10;28.60;;;;;;10400102;28;20523;-63
2022/03/19 12:17:50;;;;;;;2.78;0.40;;;20.50;28.80;;;;;;10403645;28;20113;-63
2022/03/19 12:22:55;;;;;;;1.83;0.45;;;21.10;29.20;;;;;;10403763;28;20795;-63
2022/03/19 12:27:57;;;;;;;2.58;0.57;;;20.80;28.80;;;;;;10405067;28;20041;-63
2022/03/19 12:32:59;;;;;;;3.75;0.30;;;21.20;29.20;;;;;;10402308;28;20397;-64
2022/03/19 12:38:00;;;;;;;3.35;0.30;;;22.30;29.10;;;;;;10402019;28;20048;-64
2022/03/19 12:43:02;;;;;;;1.60;0.40;;;;;;;;;;10399316;28;20499;-64
2022/03/19 12:48:11;;;;;;;1.23;0.20;;;21.90;28.30;;;;;;10407042;28;20069;-64
2022/03/19 12:53:38;;;;;;;0.88;0.28;;;22.70;29.10;;;;;;10406051;28;20045;-63
2022/03/19 12:58:44;;;;;;;1.10;0.20;;;22.70;28.70;;;;;;10393125;28;20548;-63
2022/03/19 13:03:46;;;;;;;4.07;0.30;;;23.80;28.30;;;;;;10402591;28;20137;-63
2022/03/19 13:08:50;;;;;;;1.48;0.20;;;23.90;28.50;;;;;;10411987;28;20429;-63
2022/03/19 13:13:51;;;;;;;0.35;0.15;;;24.00;29.30;;;;;;10409869;28;20602;-63
2022/03/19 13:19:02;;;;;;;3.05;0.40;;;23.60;28.20;;;;;;10409537;28;20052;-63
2022/03/19 13:24:08;;;;;;;3.17;0.30;;;23.30;27.80;;;;;;10395996;28;20056;-63
2022/03/19 13:29:29;;;;;;;1.17;0.15;;;22.80;27.70;;;;;;10395626;28;20042;-64
2022/03/19 13:34:33;;;;;;;0.57;0.13;;;22.50;27.80;;;;;;10404335;28;20049;-64
2022/03/19 13:39:36;;;;;;;2.17;0.30;;;22.80;28.10;;;;;;10410657;28;20047;-64
2022/03/19 13:44:46;;;;;;;1.50;0.28;;;22.40;28.20;;;;;;10407179;28;20478;-63
2022/03/19 13:49:55;;;;;;;1.92;0.30;;;22.30;28.50;;;;;;10405452;28;20454;-63
2022/03/19 13:55:02;;;;;;;3.10;0.30;;;21.40;29.00;;;;;;10412433;28;20040;-63
2022/03/19 14:00:08;;;;;;;2.65;0.30;;;21.10;29.70;;;;;;10406441;28;20114;-64
2022/03/19 14:05:11;;;;;;;5.97;0.30;;;21.50;30.20;;;;;;10287711;28;20124;-63
2022/03/19 14:10:14;;;;;;;1.42;0.47;;;21.50;28.80;;;;;;10405159;28;20041;-63
2022/03/19 14:15:18;;;;;;;1.60;0.95;;;21.30;29.10;;;;;;10377823;28;20120;-63
2022/03/19 14:20:22;;;;;;;4.13;0.30;;;20.60;30.20;;;;;;10401828;28;20099;-64
2022/03/19 14:25:24;;;;;;;2.83;0.20;;;19.80;31.20;;;;;;10407229;28;20575;-62
2022/03/19 14:30:25;;;;;;;1.20;0.20;;;17.70;32.30;;;;;;10408044;28;21980;-63
2022/03/19 14:35:47;;;;;;;2.28;0.13;;;17.50;33.80;;;;;;10410959;28;20049;-63
2022/03/19 14:40:50;;;;;;;0.43;0.17;;;17.40;34.00;;;;;;10599375;22;20089;-60
2022/03/19 14:45:54;;;;;;;1.27;0.10;;;17.20;34.00;;;;;;10312079;28;20066;-60
2022/03/19 14:50:58;;;;;;;3.53;0.30;;;16.20;35.40;;;;;;10327993;28;20057;-60
2022/03/19 14:56:00;;;;;;;1.08;0.28;;;15.50;36.40;;;;;;10328507;28;20484;-60
2022/03/19 15:01:02;;;;;;;0.55;0.20;;;15.00;38.30;;;;;;10324632;28;20085;-60
2022/03/19 15:06:04;;;;;;;0.30;0.10;;;15.10;37.50;;;;;;10327335;28;20050;-60
2022/03/19 15:11:06;;;;;;;2.47;0.30;;;15.40;37.80;;;;;;10321366;28;20054;-60
2022/03/19 15:16:08;;;;;;;0.50;0.20;;;15.60;38.60;;;;;;10336987;28;20050;-60
2022/03/19 15:21:11;;;;;;;5.60;0.30;;;15.90;39.50;;;;;;10313968;28;20046;-60
2022/03/19 15:26:12;;;;;;;2.72;0.20;;;15.80;40.60;;;;;;10319163;28;20139;-60
2022/03/19 15:31:14;;;;;;;0.80;0.20;;;15.10;38.20;;;;;;10320397;28;20066;-60
2022/03/19 15:36:18;;;;;;;1.95;0.20;;;14.70;40.30;;;;;;10320700;28;20780;-60
2022/03/19 15:41:19;;;;;;;1.52;0.30;;;14.40;38.80;;;;;;10323462;28;20062;-59
2022/03/19 15:46:21;;;;;;;1.48;0.25;;;14.20;39.30;;;;;;10320939;28;20073;-59
2022/03/19 15:51:23;;;;;;;1.98;0.50;;;13.80;40.40;;;;;;10316815;28;20438;-59
2022/03/19 15:56:26;;;;;;;1.75;0.30;;;13.90;43.40;;;;;;10322448;28;20206;-59
2022/03/19 16:01:28;;;;;;;5.43;0.50;;;13.00;47.70;;;;;;10310258;28;20058;-60
2022/03/19 16:06:32;;;;;;;2.85;0.28;;;12.30;49.90;;;;;;10318218;28;20069;-59
2022/03/19 16:11:33;;;;;;;2.17;0.20;;;11.80;51.60;;;;;;10305410;28;20644;-59
2022/03/19 16:16:35;;;;;;;0.40;0.20;;;11.60;53.40;;;;;;10317606;28;20057;-59
2022/03/19 16:21:37;;;;;;;1.90;0.38;;;11.70;53.40;;;;;;10304830;28;20687;-60
2022/03/19 16:26:38;;;;;;;2.45;0.30;;;11.60;50.90;;;;;;10312159;28;20147;-59
2022/03/19 16:31:41;;;;;;;0.63;0.20;;;11.70;49.90;;;;;;10315091;28;20045;-59
2022/03/19 16:36:52;;;;;;;2.97;0.50;;;11.20;57.90;;;;;;10308623;28;20050;-59
2022/03/19 16:41:54;;;;;;;2.10;0.30;;;11.00;61.80;;;;;;10317662;28;20155;-60
2022/03/19 16:46:57;;;;;;;1.35;0.30;;;10.50;58.90;;;;;;10315195;28;20081;-60
2022/03/19 16:51:59;;;;;;;1.48;0.30;;;10.30;58.70;;;;;;10314262;28;20042;-60
2022/03/19 16:57:01;;;;;;;2.75;0.30;;;9.90;59.60;;;;;;10317505;28;20062;-58
2022/03/19 17:02:03;;;;;;;1.85;0.40;;;9.70;60.60;;;;;;10317320;28;20479;-60
2022/03/19 17:07:06;;;;;;;5.03;0.40;;;9.40;61.30;;;;;;10318142;28;20049;-59
2022/03/19 17:12:07;;;;;;;2.15;0.75;;;9.20;62.10;;;;;;10329258;28;20136;-61
2022/03/19 17:17:09;;;;;;;2.97;0.70;;;9.10;62.50;;;;;;10311976;28;20053;-61
2022/03/19 17:22:11;;;;;;;3.17;0.60;;;9.10;63.50;;;;;;10341743;28;20049;-60
2022/03/19 17:27:12;;;;;;;2.40;0.40;;;8.90;63.60;;;;;;10319668;28;20238;-60
2022/03/19 17:32:14;;;;;;;5.82;0.80;;;8.80;64.10;;;;;;10321840;28;20057;-61
2022/03/19 17:37:16;;;;;;;1.95;0.73;;;8.80;65.70;;;;;;10323698;28;20046;-60
2022/03/19 17:42:18;;;;;;;5.68;0.75;;;8.60;66.30;;;;;;10327368;28;20128;-60
2022/03/19 17:47:24;;;;;;;4.07;1.98;;;8.50;65.30;;;;;;10328185;28;20053;-61
2022/03/19 17:52:30;;;;;;;4.25;1.40;;;8.40;64.60;;;;;;10326078;28;20093;-61
2022/03/19 17:57:32;;;;;;;4.97;1.55;;;8.30;64.60;;;;;;10309684;28;20107;-61
2022/03/19 18:02:36;;;;;;;5.22;2.22;;;8.10;65.50;;;;;;10334537;28;20506;-61
2022/03/19 18:07:39;;;;;;;8.10;3.22;;;8.00;66.00;;;;;;10319093;28;20128;-60
2022/03/19 18:12:42;;;;;;;6.63;2.97;;;8.00;66.80;;;;;;10330967;28;20089;-57
2022/03/19 18:17:44;;;;;;;9.18;4.13;;;8.00;67.30;;;;;;10320467;28;20585;-58
2022/03/19 18:22:50;;;;;;;11.88;3.97;;;8.00;68.00;;;;;;10330734;28;20042;-59
2022/03/19 18:27:51;;;;;;;8.85;4.65;;;7.90;68.40;;;;;;10320791;28;20133;-59
2022/03/19 18:32:53;;;;;;;13.98;4.55;;;7.90;68.60;;;;;;10316948;28;20057;-59
2022/03/19 18:37:55;;;;;;;9.45;4.38;;;7.80;68.90;;;;;;10327212;28;20123;-59
2022/03/19 18:42:57;;;;;;;10.73;4.50;;;7.80;69.70;;;;;;10327068;28;20370;-59
2022/03/19 18:47:58;;;;;;;12.40;5.00;;;7.80;69.80;;;;;;10321513;28;20716;-59
2022/03/19 18:53:00;;;;;;;11.50;5.07;;;7.70;70.10;;;;;;10325250;28;20046;-59
2022/03/19 18:58:17;;;;;;;8.70;5.10;;;7.70;70.40;;;;;;10320070;28;20053;-58
2022/03/19 19:03:19;;;;;;;14.57;5.45;;;7.70;71.10;;;;;;10317286;28;20067;-59
2022/03/19 19:08:21;;;;;;;9.88;5.32;;;7.70;71.60;;;;;;10323714;28;20049;-58
2022/03/19 19:13:23;;;;;;;15.43;5.35;;;7.60;71.40;;;;;;10321081;28;20038;-59
2022/03/19 19:18:25;;;;;;;10.48;4.85;;;7.50;72.20;;;;;;10313796;28;20054;-59
2022/03/19 19:23:30;;;;;;;14.00;4.45;;;7.40;73.30;;;;;;10314410;28;20048;-59
2022/03/19 19:28:32;;;;;;;8.95;3.83;;;7.30;75.00;;;;;;10316155;28;20045;-59
2022/03/19 19:33:34;;;;;;;12.02;4.15;;;7.10;75.90;;;;;;10318421;28;20065;-59
2022/03/19 19:38:36;;;;;;;11.98;5.47;;;6.90;76.70;;;;;;10329203;28;20147;-59
2022/03/19 19:43:38;;;;;;;13.02;6.03;;;6.80;76.50;;;;;;10324321;28;20124;-59
2022/03/19 19:48:40;;;;;;;12.13;5.47;;;6.70;77.40;;;;;;10324917;28;20100;-59
2022/03/19 19:53:42;;;;;;;16.42;6.57;;;6.70;78.70;;;;;;10325686;28;20057;-59
2022/03/19 19:58:44;;;;;;;13.82;6.38;;;6.60;78.50;;;;;;10320666;28;20042;-59
2022/03/19 20:03:46;;;;;;;14.45;7.25;;;6.60;78.60;;;;;;10321622;28;20057;-59
2022/03/19 20:08:47;;;;;;;15.57;7.10;;;6.50;78.70;;;;;;10322544;28;20103;-59
2022/03/19 20:13:50;;;;;;;13.40;6.47;;;6.50;82.30;;;;;;10308445;28;20066;-60
2022/03/19 20:18:53;;;;;;;13.45;6.82;;;6.30;83.20;;;;;;10305501;28;20137;-60
2022/03/19 20:23:54;;;;;;;16.20;7.30;;;6.10;79.40;;;;;;10309935;28;20066;-59
2022/03/19 20:28:57;;;;;;;21.30;8.02;;;5.90;80.00;;;;;;10323030;28;20046;-60
2022/03/19 20:33:59;;;;;;;21.35;8.15;;;5.80;80.70;;;;;;10327631;28;20545;-59
2022/03/19 20:39:00;;;;;;;15.18;7.13;;;5.70;80.80;;;;;;10314717;28;20173;-60
2022/03/19 20:44:04;;;;;;;17.67;8.35;;;5.60;80.90;;;;;;10331165;28;20049;-60
2022/03/19 20:50:13;;;;;;;18.20;7.95;;;5.50;80.50;;;;;;10327093;28;20111;-60
2022/03/19 20:54:28;;;;;;;19.15;8.88;;;5.40;80.00;;;;;;10323193;28;20141;-60
2022/03/19 20:59:30;;;;;;;20.05;8.63;;;5.30;80.40;;;;;;10325773;28;20073;-60
2022/03/19 21:04:32;;;;;;;21.08;8.95;;;5.20;80.70;;;;;;10323614;28;20038;-60
2022/03/19 21:09:34;;;;;;;19.27;8.73;;;5.10;80.90;;;;;;10318915;28;20074;-60
2022/03/19 21:14:41;;;;;;;21.52;9.07;;;5.00;80.60;;;;;;10324136;28;20566;-60
2022/03/19 21:19:43;;;;;;;21.40;8.65;;;5.00;80.80;;;;;;10331666;28;20061;-60
2022/03/19 21:24:44;;;;;;;18.55;8.85;;;4.90;80.70;;;;;;10347769;28;20099;-60
2022/03/19 21:29:46;;;;;;;21.83;8.77;;;4.90;80.50;;;;;;10331193;28;20057;-60
2022/03/19 21:34:51;;;;;;;20.25;8.50;;;4.80;80.40;;;;;;10333284;28;20806;-60
2022/03/19 21:45:13;;;;;;;22.58;8.10;;;4.80;79.80;;;;;;10335705;28;20049;-61
2022/03/19 21:50:16;;;;;;;19.30;8.55;;;4.80;79.20;;;;;;10321152;28;21113;-60
2022/03/19 21:55:20;;;;;;;19.73;9.25;;;4.70;78.90;;;;;;10335608;28;20089;-60
2022/03/19 22:00:22;;;;;;;16.52;8.10;;;4.70;78.90;;;;;;10331196;28;20081;-60
2022/03/19 22:05:24;;;;;;;16.05;8.07;;;4.60;78.60;;;;;;10332393;28;20675;-61
2022/03/19 22:10:25;;;;;;;22.08;8.88;;;4.60;78.30;;;;;;10328332;28;20146;-60
2022/03/19 22:15:28;;;;;;;18.30;8.48;;;4.60;78.30;;;;;;10340728;28;20137;-60
2022/03/19 22:20:29;;;;;;;21.08;9.52;;;4.60;77.80;;;;;;10347367;28;20050;-60
2022/03/19 22:25:31;;;;;;;18.80;8.27;;;4.60;77.60;;;;;;10329359;28;20045;-61
2022/03/19 22:30:33;;;;;;;18.23;8.75;;;4.60;77.40;;;;;;10322707;28;20104;-60
2022/03/19 22:35:35;;;;;;;26.02;10.27;;;4.50;77.20;;;;;;10320972;28;20882;-61
2022/03/19 22:40:38;;;;;;;20.23;8.60;;;4.60;77.40;;;;;;10319269;28;20053;-60
2022/03/19 22:45:39;;;;;;;17.40;8.57;;;4.50;76.90;;;;;;10330804;28;20085;-60
2022/03/19 22:50:41;;;;;;;19.95;8.80;;;4.50;76.80;;;;;;10322430;28;20181;-60
2022/03/19 22:55:43;;;;;;;20.15;9.15;;;4.50;76.50;;;;;;10315834;28;20061;-57
2022/03/19 23:00:49;;;;;;;16.80;8.48;;;4.50;76.70;;;;;;10323822;28;20436;-58
2022/03/19 23:05:51;;;;;;;24.33;9.05;;;4.40;76.70;;;;;;10316125;28;20154;-58
2022/03/19 23:16:13;;;;;;;20.30;7.97;;;4.30;76.20;;;;;;10313249;28;20536;-58
2022/03/19 23:21:15;;;;;;;20.23;8.93;;;4.30;76.30;;;;;;10319484;28;20050;-58
2022/03/19 23:26:17;;;;;;;18.05;8.68;;;4.20;75.40;;;;;;10322196;28;20102;-58
2022/03/19 23:31:19;;;;;;;14.55;8.55;;;4.30;75.20;;;;;;10320909;28;20108;-58
2022/03/19 23:36:21;;;;;;;24.50;8.57;;;4.20;74.30;;;;;;10321404;28;20530;-58
2022/03/19 23:41:23;;;;;;;15.43;7.93;;;4.20;74.30;;;;;;10317335;28;20050;-58
2022/03/19 23:46:26;;;;;;;18.60;7.80;;;4.10;74.20;;;;;;10320642;28;20116;-58
2022/03/19 23:51:28;;;;;;;22.35;8.48;;;4.10;74.90;;;;;;10319197;28;20053;-58
2022/03/19 23:56:30;;;;;;;19.52;8.48;;;4.10;73.60;;;;;;10318462;28;20046;-58
